createdAt,value
2018-07-21T00:01:46.544Z,99598.00
2018-07-21T00:06:49.635Z,99593.00
2018-07-21T00:11:52.675Z,99591.00
2018-07-21T00:16:55.645Z,99589.00
2018-07-21T00:21:58.708Z,99591.00
2018-07-21T00:27:01.866Z,99587.00
2018-07-21T00:32:04.813Z,99589.00
2018-07-21T00:37:08.110Z,99590.00
2018-07-21T00:42:11.199Z,99586.00
2018-07-21T00:47:14.180Z,99583.00
2018-07-21T00:52:17.377Z,99587.00
2018-07-21T00:57:20.366Z,99588.00
2018-07-21T01:02:23.343Z,99577.00
2018-07-21T01:07:26.423Z,99580.00
2018-07-21T01:12:29.535Z,99581.00
2018-07-21T01:17:32.580Z,99569.00
2018-07-21T01:22:35.768Z,99574.00
2018-07-21T01:27:38.794Z,99580.00
2018-07-21T01:32:41.788Z,99576.00
2018-07-21T01:37:44.815Z,99586.00
2018-07-21T01:42:48.087Z,99583.00
2018-07-21T01:47:51.084Z,99573.00
2018-07-21T01:52:54.143Z,99583.00
2018-07-21T01:57:57.160Z,99570.00
2018-07-21T02:03:00.260Z,99571.00
2018-07-21T02:08:03.304Z,99579.00
2018-07-21T02:13:06.772Z,99574.00
2018-07-21T02:18:09.760Z,99573.00
2018-07-21T02:23:12.736Z,99575.00
2018-07-21T02:28:15.874Z,99586.00
2018-07-21T02:33:18.841Z,99575.00
2018-07-21T02:38:21.988Z,99583.00
2018-07-21T02:43:24.934Z,99584.00
2018-07-21T02:48:27.919Z,99575.00
2018-07-21T02:53:31.568Z,99580.00
2018-07-21T02:58:34.557Z,99583.00
2018-07-21T03:03:37.503Z,99587.00
2018-07-21T03:08:40.461Z,99602.00
2018-07-21T03:13:43.426Z,99620.00
2018-07-21T03:18:46.741Z,99610.00
2018-07-21T03:23:49.719Z,99615.00
2018-07-21T03:28:52.684Z,99632.00
2018-07-21T03:33:55.651Z,99639.00
2018-07-21T03:38:58.619Z,99644.00
2018-07-21T03:44:01.589Z,99639.00
2018-07-21T03:49:04.636Z,99642.00
2018-07-21T03:54:07.875Z,99650.00
2018-07-21T03:59:10.903Z,99657.00
2018-07-21T04:04:13.916Z,99645.00
2018-07-21T04:09:16.887Z,99646.00
2018-07-21T04:14:20.183Z,99645.00
2018-07-21T04:19:23.395Z,99639.00
2018-07-21T04:24:26.599Z,99633.00
2018-07-21T04:29:29.607Z,99631.00
2018-07-21T04:34:32.584Z,99636.00
2018-07-21T04:39:35.560Z,99648.00
2018-07-21T04:44:38.989Z,99633.00
2018-07-21T04:49:41.936Z,99638.00
2018-07-21T04:54:44.893Z,99639.00
2018-07-21T04:59:47.903Z,99638.00
2018-07-21T05:04:51.152Z,99634.00
2018-07-21T05:09:54.099Z,99651.00
2018-07-21T05:14:57.112Z,99643.00
2018-07-21T05:20:00.101Z,99643.00
2018-07-21T05:25:03.475Z,99643.00
2018-07-21T05:30:06.505Z,99646.00
2018-07-21T05:35:09.519Z,99655.00
2018-07-21T05:40:12.692Z,99661.00
2018-07-21T05:45:16.008Z,99661.00
2018-07-21T05:50:19.033Z,99656.00
2018-07-21T05:55:22.079Z,99665.00
2018-07-21T06:00:25.090Z,99660.00
2018-07-21T06:05:28.345Z,99664.00
2018-07-21T06:10:31.328Z,99664.00
2018-07-21T06:15:34.535Z,99666.00
2018-07-21T06:20:38.061Z,99677.00
2018-07-21T06:25:41.168Z,99690.00
2018-07-21T06:30:44.335Z,99682.00
2018-07-21T06:35:47.446Z,99686.00
2018-07-21T06:40:50.495Z,99688.00
2018-07-21T06:45:53.684Z,99701.00
2018-07-21T06:50:56.898Z,99710.00
2018-07-21T06:55:59.961Z,99707.00
2018-07-21T07:01:03.096Z,99713.00
2018-07-21T07:06:06.319Z,99715.00
2018-07-21T07:11:09.336Z,99710.00
2018-07-21T07:16:12.491Z,99719.00
2018-07-21T07:21:15.479Z,99734.00
2018-07-21T07:26:18.476Z,99731.00
2018-07-21T07:31:21.488Z,99742.00
2018-07-21T07:36:24.636Z,99740.00
2018-07-21T07:41:27.599Z,99752.00
2018-07-21T07:46:30.524Z,99759.00
2018-07-21T07:51:33.591Z,99767.00
2018-07-21T07:56:36.562Z,99769.00
2018-07-21T08:01:39.538Z,99772.00
2018-07-21T08:06:42.698Z,99779.00
2018-07-21T08:11:45.781Z,99778.00
2018-07-21T08:16:48.846Z,99773.00
2018-07-21T08:21:51.909Z,99786.00
2018-07-21T08:26:54.921Z,99781.00
2018-07-21T08:31:57.994Z,99789.00
2018-07-21T08:37:00.996Z,99783.00
2018-07-21T08:42:04.164Z,99800.00
2018-07-21T08:47:07.403Z,99826.00
2018-07-21T08:52:10.805Z,99822.00
2018-07-21T08:57:13.820Z,99826.00
2018-07-21T09:02:16.878Z,99820.00
2018-07-21T09:07:19.907Z,99826.00
2018-07-21T09:12:23.165Z,99826.00
2018-07-21T09:17:26.243Z,99834.00
2018-07-21T09:22:29.274Z,99835.00
2018-07-21T09:27:32.353Z,99828.00
2018-07-21T09:32:35.609Z,99853.00
2018-07-21T09:37:38.685Z,99836.00
2018-07-21T09:42:41.802Z,99848.00
2018-07-21T09:47:44.833Z,99854.00
2018-07-21T09:52:48.152Z,99855.00
2018-07-21T09:57:51.187Z,99864.00
2018-07-21T10:02:54.262Z,99859.00
2018-07-21T10:07:57.386Z,99871.00
2018-07-21T10:13:00.748Z,99877.00
2018-07-21T10:18:03.816Z,99872.00
2018-07-21T10:23:07.180Z,99884.00
2018-07-21T10:28:15.917Z,99898.00
2018-07-21T10:33:19.051Z,99900.00
2018-07-21T10:38:22.228Z,99905.00
2018-07-21T10:43:25.292Z,99917.00
2018-07-21T10:48:28.456Z,99919.00
2018-07-21T10:53:31.504Z,99926.00
2018-07-21T10:58:34.539Z,99926.00
2018-07-21T11:03:37.581Z,99932.00
2018-07-21T11:08:40.535Z,99930.00
2018-07-21T11:13:43.564Z,99929.00
2018-07-21T11:18:46.773Z,99932.00
2018-07-21T11:23:49.768Z,99939.00
2018-07-21T11:28:53.563Z,99933.00
2018-07-21T11:33:56.547Z,99933.00
2018-07-21T11:38:59.696Z,99925.00
2018-07-21T11:44:02.768Z,99930.00
2018-07-21T11:49:05.971Z,99935.00
2018-07-21T11:54:08.968Z,99942.00
2018-07-21T11:59:11.967Z,99936.00
2018-07-21T12:04:14.973Z,99935.00
2018-07-21T12:09:18.007Z,99930.00
2018-07-21T12:14:21.309Z,99929.00
2018-07-21T12:19:24.557Z,99932.00
2018-07-21T12:24:27.588Z,99924.00
2018-07-21T12:29:30.670Z,99935.00
2018-07-21T12:34:33.658Z,99927.00
2018-07-21T12:39:36.670Z,99927.00
2018-07-21T12:44:39.676Z,99918.00
2018-07-21T12:49:42.681Z,99913.00
2018-07-21T12:54:45.868Z,99919.00
2018-07-21T12:59:48.995Z,99913.00
2018-07-21T13:04:51.988Z,99925.00
2018-07-21T13:09:55.011Z,99920.00
2018-07-21T13:14:58.020Z,99909.00
2018-07-21T13:20:01.193Z,99901.00
2018-07-21T13:25:05.494Z,99911.00
2018-07-21T13:30:09.122Z,99912.00
2018-07-21T13:35:12.224Z,99918.00
2018-07-21T13:40:15.260Z,99904.00
2018-07-21T13:45:18.410Z,99903.00
2018-07-21T13:50:21.420Z,99895.00
2018-07-21T13:55:24.432Z,99894.00
2018-07-21T14:00:27.636Z,99887.00
2018-07-21T14:05:30.669Z,99881.00
2018-07-21T14:10:33.646Z,99883.00
2018-07-21T14:15:37.294Z,99881.00
2018-07-21T14:20:40.298Z,99872.00
2018-07-21T14:25:43.557Z,99875.00
2018-07-21T14:30:46.624Z,99876.00
2018-07-21T14:35:49.659Z,99871.00
2018-07-21T14:40:52.735Z,99881.00
2018-07-21T14:45:55.795Z,99883.00
2018-07-21T14:50:58.842Z,99883.00
2018-07-21T14:56:01.961Z,99883.00
2018-07-21T15:01:04.976Z,99888.00
2018-07-21T15:06:08.091Z,99875.00
2018-07-21T15:11:11.171Z,99875.00
2018-07-21T15:16:14.622Z,99858.00
2018-07-21T15:21:17.835Z,99857.00
2018-07-21T15:26:20.904Z,99869.00
2018-07-21T15:31:24.151Z,99867.00
2018-07-21T15:36:27.440Z,99867.00
2018-07-21T15:41:30.612Z,99858.00
2018-07-21T15:46:33.651Z,99873.00
2018-07-21T15:51:36.929Z,99862.00
2018-07-21T15:56:40.032Z,99862.00
2018-07-21T16:01:43.379Z,99870.00
2018-07-21T16:06:46.333Z,99858.00
2018-07-21T16:11:49.398Z,99851.00
2018-07-21T16:16:52.437Z,99867.00
2018-07-21T16:21:55.702Z,99860.00
2018-07-21T16:26:58.915Z,99862.00
2018-07-21T16:32:02.133Z,99861.00
2018-07-21T16:37:05.203Z,99869.00
2018-07-21T16:42:08.212Z,99854.00
2018-07-21T16:47:11.444Z,99850.00
2018-07-21T16:52:14.518Z,99847.00
2018-07-21T16:57:17.868Z,99848.00
2018-07-21T17:02:21.190Z,99836.00
2018-07-21T17:07:24.374Z,99828.00
2018-07-21T17:12:27.601Z,99831.00
2018-07-21T17:17:30.916Z,99829.00
2018-07-21T17:22:34.109Z,99826.00
2018-07-21T17:27:37.107Z,99835.00
2018-07-21T17:32:40.426Z,99831.00
2018-07-21T17:37:43.468Z,99835.00
2018-07-21T17:42:47.153Z,99834.00
2018-07-21T17:47:50.247Z,99836.00
2018-07-21T17:52:53.266Z,99845.00
2018-07-21T17:57:56.530Z,99846.00
2018-07-21T18:02:59.648Z,99848.00
2018-07-21T18:08:02.720Z,99851.00
2018-07-21T18:13:05.785Z,99841.00
2018-07-21T18:18:08.891Z,99847.00
2018-07-21T18:23:11.920Z,99852.00
2018-07-21T18:28:14.908Z,99853.00
2018-07-21T18:33:17.968Z,99845.00
2018-07-21T18:38:20.991Z,99840.00
2018-07-21T18:43:24.030Z,99843.00
2018-07-21T18:48:27.090Z,99839.00
2018-07-21T18:53:30.216Z,99842.00
2018-07-21T18:58:33.271Z,99837.00
2018-07-21T19:03:36.435Z,99839.00
2018-07-21T19:08:45.295Z,99842.00
2018-07-21T19:13:48.476Z,99849.00
2018-07-21T19:18:51.919Z,99841.00
2018-07-21T19:23:55.439Z,99855.00
2018-07-21T19:28:59.063Z,99859.00
2018-07-21T19:34:02.363Z,99866.00
2018-07-21T19:39:07.127Z,99867.00
2018-07-21T19:44:10.304Z,99863.00
2018-07-21T19:49:13.627Z,99871.00
2018-07-21T19:54:16.655Z,99878.00
2018-07-21T19:59:19.833Z,99880.00
2018-07-21T20:04:22.836Z,99890.00
2018-07-21T20:09:26.242Z,99883.00
2018-07-21T20:14:29.464Z,99888.00
2018-07-21T20:19:32.651Z,99890.00
2018-07-21T20:24:36.234Z,99891.00
2018-07-21T20:29:39.503Z,99886.00
2018-07-21T20:34:42.502Z,99890.00
2018-07-21T20:39:45.633Z,99889.00
2018-07-21T20:44:48.815Z,99892.00
2018-07-21T20:49:51.864Z,99882.00
2018-07-21T20:54:54.940Z,99893.00
2018-07-21T20:59:58.160Z,99893.00
2018-07-21T21:05:01.329Z,99902.00
2018-07-21T21:10:04.716Z,99911.00
2018-07-21T21:15:07.851Z,99901.00
2018-07-21T21:20:11.018Z,99907.00
2018-07-21T21:25:14.104Z,99914.00
2018-07-21T21:30:17.367Z,99904.00
2018-07-21T21:35:20.641Z,99904.00
2018-07-21T21:40:23.667Z,99918.00
2018-07-21T21:45:26.820Z,99916.00
2018-07-21T21:50:29.852Z,99914.00
2018-07-21T21:55:32.957Z,99926.00
2018-07-21T22:01:09.918Z,99922.00
2018-07-21T22:06:13.186Z,99930.00
2018-07-21T22:11:16.431Z,99924.00
2018-07-21T22:16:19.533Z,99922.00
2018-07-21T22:21:22.833Z,99929.00
2018-07-21T22:26:25.863Z,99929.00
2018-07-21T22:31:29.173Z,99937.00
2018-07-21T22:36:32.331Z,99938.00
2018-07-21T22:41:35.311Z,99957.00
2018-07-21T22:46:38.336Z,99952.00
2018-07-21T22:51:41.458Z,99955.00
2018-07-21T22:56:44.691Z,99941.00
2018-07-21T23:01:47.711Z,99942.00
2018-07-21T23:06:50.909Z,99943.00
2018-07-21T23:11:53.949Z,99959.00
2018-07-21T23:16:57.005Z,99958.00
2018-07-21T23:22:00.160Z,99945.00
2018-07-21T23:27:03.281Z,99953.00
2018-07-21T23:32:06.575Z,99938.00
2018-07-21T23:37:09.616Z,99931.00
2018-07-21T23:42:12.655Z,99933.00
2018-07-21T23:47:15.780Z,99931.00
2018-07-21T23:52:18.735Z,99931.00
2018-07-21T23:57:21.763Z,99931.00
